Latest Weather Observations for Brisbane Airport

IDQ60901

Issued at 4:41 am EST Monday 20 February 2017 (issued every 10 minutes, with the page automatically refreshed every 10 minutes)

About weather observations | Map of Brisbane area stations | Latest observations for Brisbane area | Other Formats
Station Details ID: 040842 Name: BRISBANE AERO Lat: -27.39 Lon: 153.13 Height: 4.51 m
Data from the previous 72 hours. | See also: Recent months at Brisbane Airport
Date/Time
EST
Temp
°C
App
Temp
°C
Dew
Point
°C
Rel
Hum
%
Delta-T
°C
Wind Press
QNH
hPa
Press
MSL
hPa
Rain since
9am
mm
Dir  Spd
km/h
Gust
km/h
Spd
kts
Gust
kts
20/04:30am 22.3 24.4 20.1 87 1.4 SSW 9 13 5 7 1007.8 1007.8 7.8
20/04:00am 22.1 24.5 20.9 93 0.8 SW 9 13 5 7 1007.3 1007.3 7.8
20/03:30am 22.4 25.9 20.4 88 1.3 SSW 2 7 1 4 1006.7 1006.7 7.8
20/03:00am 22.4 24.7 20.6 89 1.2 N 9 13 5 7 1006.9 1006.9 7.8
20/02:30am 22.3 25.3 21.2 93 0.7 NNE 7 9 4 5 1007.4 1007.4 7.6
20/02:00am 22.5 24.9 21.6 95 0.6 WSW 11 13 6 7 1008.1 1008.1 7.6
20/01:30am 22.5 25.6 21.4 93 0.7 SSW 7 9 4 5 1007.9 1007.9 7.6
20/01:00am 22.5 23.7 21.4 93 0.7 SW 17 22 9 12 1008.7 1008.7 7.6
20/12:30am 22.4 23.5 21.3 93 0.7 SW 17 22 9 12 1008.7 1008.7 7.6
20/12:00am 21.7 22.4 20.5 93 0.8 SW 17 20 9 11 1009.2 1009.2 7.6
 
Date/Time
EST
Temp
°C
App
Temp
°C
Dew
Point
°C
Rel
Hum
%
Delta-T
°C
Wind Press
QNH
hPa
Press
MSL
hPa
Rain since
9am
mm
Dir  Spd
km/h
Gust
km/h
Spd
kts
Gust
kts
19/11:30pm 21.6 22.3 20.5 93 0.7 SW 17 22 9 12 1009.4 1009.4 7.6
19/11:00pm 21.2 21.7 20.1 93 0.7 SSW 17 26 9 14 1008.9 1008.9 7.4
19/10:46pm 21.3 20.5 20.1 93 0.8 WSW 24 30 13 16 1009.6 1009.6 7.2
19/10:30pm 21.9 19.0 20.0 89 1.2 WSW 35 50 19 27 1010.0 1010.0 6.0
19/10:18pm 23.3 22.2 21.0 87 1.5 W 28 41 15 22 1009.8 1009.8 4.6
19/10:00pm 23.9 26.2 22.1 90 1.2 WNW 13 17 7 9 1009.4 1009.4 4.2
19/09:30pm 23.6 27.8 21.8 90 1.2 WSW 2 11 1 6 1008.9 1008.9 4.2
19/09:00pm 23.5 27.0 22.2 92 0.9 NW 7 13 4 7 1008.8 1008.8 3.8
19/08:30pm 23.9 26.5 22.7 93 0.8 N 13 22 7 12 1008.9 1008.9 3.0
19/08:00pm 24.2 27.4 22.3 89 1.3 NW 9 13 5 7 1008.5 1008.5 2.4
19/07:30pm 24.0 28.4 22.8 93 0.8 SW 4 9 2 5 1008.1 1008.1 2.2
19/07:00pm 24.3 28.1 22.8 91 1.0 WSW 7 15 4 8 1007.6 1007.6 1.4
19/06:30pm 24.2 27.2 22.7 91 1.0 ENE 11 15 6 8 1007.2 1007.2 1.4
19/06:00pm 24.6 27.5 22.5 88 1.4 N 11 15 6 8 1007.5 1007.5 1.0
19/05:30pm 24.4 27.7 22.6 90 1.2 N 9 15 5 8 1006.3 1006.3 0.8
19/05:00pm 24.8 26.8 22.3 86 1.7 N 15 26 8 14 1006.0 1006.0 0.4
19/04:30pm 26.4 28.4 23.6 84 1.9 N 19 26 10 14 1005.9 1005.9 0.0
19/04:00pm 27.5 28.8 22.3 73 3.5 N 19 24 10 13 1006.1 1006.1 0.0
19/03:30pm 27.9 29.6 22.3 71 3.8 N 17 24 9 13 1006.0 1006.0 0.0
19/03:00pm 28.2 28.5 21.6 67 4.4 N 22 30 12 16 1006.3 1006.3 0.0
19/02:30pm 29.1 30.1 22.8 69 4.3 NNE 22 28 12 15 1005.8 1005.8 0.0
19/02:00pm 29.4 29.2 21.3 61 5.4 NNE 24 33 13 18 1006.1 1006.1 0.0
19/01:30pm 29.9 29.6 21.1 59 5.9 NNE 24 32 13 17 1006.2 1006.2 0.0
19/01:00pm 31.4 31.1 21.1 54 6.9 NNE 24 30 13 16 1006.4 1006.4 0.0
19/12:30pm 31.7 31.7 21.0 53 7.2 NNE 22 28 12 15 1006.7 1006.7 0.0
19/12:00pm 31.2 31.1 20.0 51 7.4 NNE 20 28 11 15 1006.9 1006.9 0.0
19/11:30am 31.1 31.4 20.8 54 6.9 NNE 20 26 11 14 1007.3 1007.3 0.0
19/11:00am 30.2 30.5 19.7 53 6.9 NNE 17 22 9 12 1007.5 1007.5 0.0
19/10:30am 29.6 30.1 20.0 56 6.3 NNE 17 19 9 10 1007.8 1007.8 0.0
19/10:00am 29.6 30.3 19.7 55 6.5 N 15 19 8 10 1008.0 1008.0 0.0
19/09:30am 28.5 29.9 20.3 61 5.4 NNW 13 19 7 10 1008.1 1008.1 0.0
19/09:00am 27.1 28.4 20.1 65 4.6 NNW 13 24 7 13 1008.2 1008.2 0.0
19/08:30am 26.7 27.7 20.3 68 4.2 NNW 15 20 8 11 1008.4 1008.4 0.0
19/08:00am 25.6 26.6 20.2 72 3.5 NNW 15 19 8 10 1008.4 1008.4 0.0
19/07:30am 24.8 26.5 20.2 75 3.0 NNE 11 13 6 7 1008.3 1008.3 0.0
19/07:00am 23.9 25.2 20.2 80 2.4 NNW 13 15 7 8 1008.5 1008.5 0.0
19/06:30am 23.3 26.0 20.2 83 2.0 NNW 6 7 3 4 1008.6 1008.6 0.0
19/06:00am 23.0 25.1 20.1 84 1.9 NW 9 15 5 8 1008.7 1008.7 0.0
19/05:30am 22.7 24.8 20.1 85 1.7 WNW 9 13 5 7 1008.7 1008.7 0.0
19/05:00am 22.6 24.3 20.1 86 1.6 NW 11 15 6 8 1008.4 1008.4 0.0
19/04:30am 22.5 26.4 20.3 87 1.4 CALM 0 0 0 0 1008.2 1008.2 0.0
19/04:00am 22.8 24.6 20.3 86 1.6 SSW 11 17 6 9 1008.6 1008.6 0.0
19/03:30am 23.2 23.8 20.3 84 1.9 SW 17 24 9 13 1008.8 1008.8 0.0
19/03:00am 23.9 24.1 20.2 80 2.4 WSW 19 26 10 14 1009.3 1009.3 0.0
19/02:30am 24.1 25.1 20.3 79 2.5 WSW 15 20 8 11 1009.3 1009.3 0.0
19/02:00am 24.7 27.0 21.4 82 2.2 NW 11 15 6 8 1009.2 1009.2 0.0
19/01:30am 25.1 27.2 21.0 78 2.7 NW 11 15 6 8 1009.1 1009.1 0.0
19/01:00am 25.3 26.6 20.9 76 2.9 NNW 15 22 8 12 1009.4 1009.4 0.0
19/12:30am 25.9 24.8 21.1 75 3.2 NNW 28 35 15 19 1010.0 1010.0 0.0
19/12:00am 25.9 24.1 21.2 75 3.1 N 32 41 17 22 1008.7 1008.7 0.0
 
Date/Time
EST
Temp
°C
App
Temp
°C
Dew
Point
°C
Rel
Hum
%
Delta-T
°C
Wind Press
QNH
hPa
Press
MSL
hPa
Rain since
9am
mm
Dir  Spd
km/h
Gust
km/h
Spd
kts
Gust
kts
18/11:30pm 25.9 24.5 21.2 75 3.1 N 30 39 16 21 1008.9 1008.9 0.0
18/11:00pm 26.0 25.0 22.0 78 2.7 N 30 41 16 22 1009.0 1009.0 0.0
18/10:30pm 26.4 24.9 21.8 76 3.1 N 32 41 17 22 1008.7 1008.7 0.0
18/10:00pm 26.4 25.0 22.2 78 2.8 N 33 41 18 22 1008.6 1008.6 0.0
18/09:30pm 26.2 24.0 21.5 75 3.1 N 35 44 19 24 1008.6 1008.6 0.0
18/09:00pm 26.4 24.2 21.4 74 3.3 N 35 61 19 33 1008.4 1008.4 0.0
18/08:53pm 26.3 24.6 21.7 76 3.1 N 33 56 18 30 1008.4 1008.4 0.0
18/08:30pm 26.3 24.7 21.5 75 3.2 N 32 43 17 23 1008.3 1008.3 0.0
18/08:00pm 26.2 24.3 21.4 75 3.2 N 33 44 18 24 1008.0 1008.0 0.0
18/07:30pm 26.2 24.0 21.4 75 3.2 NNE 35 48 19 26 1007.9 1007.9 0.0
18/07:00pm 26.2 24.4 21.2 74 3.3 NNE 32 39 17 21 1007.4 1007.4 0.0
18/06:30pm 26.3 23.8 20.8 71 3.6 NNE 35 44 19 24 1007.2 1007.2 0.0
18/06:00pm 26.8 24.7 20.6 69 4.1 NNE 32 41 17 22 1007.2 1007.2 0.0
18/05:30pm 27.3 25.0 20.5 66 4.5 NNE 33 43 18 23 1007.1 1007.1 0.0
18/05:00pm 27.6 25.2 20.3 64 4.8 NNE 33 43 18 23 1007.2 1007.2 0.0
18/04:30pm 28.3 25.4 20.1 61 5.4 NNE 35 43 19 23 1007.6 1007.6 0.0
18/04:00pm 28.3 25.6 19.7 59 5.6 NNE 33 43 18 23 1007.7 1007.7 0.0
18/03:30pm 29.3 25.9 19.1 54 6.6 NNE 35 46 19 25 1008.0 1008.0 0.0
18/03:00pm 29.7 26.0 18.3 50 7.3 NNE 35 44 19 24 1008.1 1008.1 0.0
18/02:30pm 29.4 25.5 17.8 49 7.4 NNE 35 44 19 24 1008.3 1008.3 0.0
18/02:00pm 30.1 26.1 17.5 46 8.0 NNE 35 43 19 23 1008.6 1008.6 0.0
18/01:30pm 29.2 26.2 18.7 53 6.8 NNE 32 39 17 21 1009.0 1009.0 0.0
18/01:00pm 28.9 25.9 18.7 54 6.6 NNE 32 41 17 22 1009.3 1009.3 0.0
18/12:30pm 29.0 25.8 18.2 52 6.9 NNE 32 37 17 20 1009.7 1009.7 0.0
18/12:00pm 28.9 26.3 18.6 53 6.6 NNE 30 37 16 20 1010.1 1010.1 0.0
18/11:30am 29.5 27.8 19.0 53 6.8 NNE 26 35 14 19 1010.6 1010.6 0.0
18/11:00am 28.7 27.7 18.9 55 6.3 NNE 22 30 12 16 1010.9 1010.9 0.0
18/10:30am 28.4 26.9 18.6 55 6.3 NNE 24 32 13 17 1011.4 1011.4 0.0
18/10:00am 28.5 26.0 16.2 47 7.6 N 24 28 13 15 1011.7 1011.7 0.0
18/09:30am 27.6 26.1 18.5 57 5.8 N 24 30 13 16 1012.0 1012.0 0.0
18/09:00am 27.3 26.2 18.7 59 5.5 N 22 28 12 15 1012.3 1012.3 0.0
18/08:30am 27.8 27.3 17.9 54 6.3 N 17 22 9 12 1012.5 1012.5 0.0
18/08:00am 26.7 26.0 18.2 59 5.4 NNW 19 26 10 14 1012.4 1012.4 0.0
18/07:30am 26.0 25.3 18.3 62 4.9 NNW 19 28 10 15 1012.6 1012.6 0.0
18/07:00am 24.5 23.9 18.5 69 3.8 WNW 19 22 10 12 1012.7 1012.7 0.0
18/06:30am 23.4 22.8 18.5 74 3.1 NW 19 22 10 12 1012.3 1012.3 0.0
18/06:00am 23.4 22.1 19.8 80 2.3 N 26 33 14 18 1011.6 1011.6 0.0
18/05:30am 24.2 22.7 19.5 75 3.0 N 26 33 14 18 1011.3 1011.3 0.0
18/05:00am 24.1 23.3 19.3 74 3.1 N 22 30 12 16 1011.2 1011.2 0.0
18/04:30am 23.8 23.5 19.1 75 3.0 NNE 19 26 10 14 1011.2 1011.2 0.0
18/04:00am 22.7 23.1 19.1 80 2.3 NNE 15 19 8 10 1011.5 1011.5 0.0
18/03:30am 23.1 25.0 19.0 78 2.6 NE 7 9 4 5 1011.9 1011.9 0.0
18/03:00am 22.2 24.9 18.7 80 2.2 NNE 2 15 1 8 1012.6 1012.6 0.0
18/02:30am 22.2 24.0 18.7 80 2.2 ENE 7 9 4 5 1013.0 1013.0 0.0
18/02:00am 23.2 24.6 18.6 75 2.9 SSW 9 13 5 7 1013.9 1013.9 0.0
18/01:30am 23.4 24.4 18.7 75 3.0 SW 11 15 6 8 1013.8 1013.8 0.0
18/01:00am 23.7 24.3 18.6 73 3.2 W 13 15 7 8 1013.8 1013.8 0.0
18/12:30am 23.6 24.2 18.7 74 3.1 NW 13 15 7 8 1013.5 1013.5 0.0
18/12:00am 23.9 24.0 19.2 75 3.0 NW 17 26 9 14 1013.7 1013.7 0.0
 
Date/Time
EST
Temp
°C
App
Temp
°C
Dew
Point
°C
Rel
Hum
%
Delta-T
°C
Wind Press
QNH
hPa
Press
MSL
hPa
Rain since
9am
mm
Dir  Spd
km/h
Gust
km/h
Spd
kts
Gust
kts
17/11:30pm 24.7 24.3 18.9 70 3.7 N 19 26 10 14 1013.7 1013.7 0.0
17/11:00pm 24.7 23.9 18.5 68 3.9 N 20 28 11 15 1013.7 1013.7 0.0
17/10:30pm 24.7 24.2 18.7 69 3.8 N 19 26 10 14 1013.6 1013.6 0.0
17/10:00pm 24.5 23.8 18.7 70 3.7 N 20 28 11 15 1013.7 1013.7 0.0
17/09:30pm 24.3 23.3 18.8 71 3.5 NNE 22 30 12 16 1013.3 1013.3 0.0
17/09:00pm 24.5 24.1 18.8 70 3.6 NNE 19 26 10 14 1013.4 1013.4 0.0
17/08:30pm 24.2 23.6 18.8 72 3.4 NNE 20 26 11 14 1013.1 1013.1 0.0
17/08:00pm 24.4 24.0 18.9 71 3.5 NNE 19 26 10 14 1012.8 1012.8 0.0
17/07:30pm 24.7 24.3 18.9 70 3.7 NNE 19 28 10 15 1012.6 1012.6 0.0
17/07:00pm 24.9 24.5 18.9 69 3.8 NNE 19 24 10 13 1012.0 1012.0 0.0
17/06:30pm 25.7 25.7 19.0 66 4.3 NE 17 22 9 12 1012.1 1012.1 0.0
17/06:00pm 26.5 25.3 18.3 60 5.2 NE 22 28 12 15 1011.8 1011.8 0.0
17/05:30pm 27.2 26.2 18.8 60 5.4 NE 22 30 12 16 1011.8 1011.8 0.0
17/05:00pm 28.2 26.8 18.9 57 6.0 NE 24 30 13 16 1011.8 1011.8 0.0
17/04:30pm 28.5 27.3 19.2 57 6.0 NE 24 32 13 17 1011.8 1011.8 0.0
17/04:00pm 28.6 27.9 19.5 58 5.9 NE 22 30 12 16 1011.9 1011.9 0.0
17/03:30pm 28.9 27.7 19.2 55 6.3 NE 24 33 13 18 1011.9 1011.9 0.0
17/03:00pm 28.9 27.0 18.6 53 6.6 NE 26 32 14 17 1012.2 1012.2 0.0
17/02:30pm 29.4 27.2 17.8 49 7.4 NE 26 32 14 17 1012.3 1012.3 0.0
17/02:00pm 29.5 27.6 17.7 49 7.5 NE 24 30 13 16 1012.7 1012.7 0.0
17/01:30pm 28.8 27.0 17.8 51 7.0 NE 24 30 13 16 1013.3 1013.3 0.0
17/01:00pm 28.8 26.7 17.2 49 7.3 NE 24 32 13 17 1013.5 1013.5 0.0
17/12:30pm 28.8 27.6 17.4 50 7.2 NNE 20 26 11 14 1013.8 1013.8 0.0
17/12:00pm 28.5 27.5 18.0 53 6.7 NNE 20 28 11 15 1014.1 1014.1 0.0
17/11:30am 28.0 27.8 18.5 56 6.1 NNE 17 26 9 14 1014.6 1014.6 0.0
17/11:00am 28.7 28.3 18.9 55 6.3 NNE 19 26 10 14 1015.0 1015.0 0.0
17/10:30am 27.8 27.6 18.4 56 6.0 NNE 17 22 9 12 1015.4 1015.4 0.0
17/10:00am 27.0 26.6 18.0 58 5.7 N 17 26 9 14 1015.5 1015.5 0.0
17/09:30am 27.3 27.9 18.5 58 5.6 NNE 13 19 7 10 1015.7 1015.7 0.0
17/09:00am 26.1 26.7 18.6 63 4.8 N 13 17 7 9 1015.9 1015.9 0.0
17/08:30am 26.0 27.2 18.3 62 4.9 NNW 9 15 5 8 1015.8 1015.8 0.0
17/08:00am 26.0 27.3 18.4 63 4.8 W 9 11 5 6 1015.8 1015.8 0.0
17/07:30am 25.3 26.2 18.5 66 4.3 W 11 13 6 7 1015.8 1015.8 0.0
17/07:00am 25.4 26.4 18.6 66 4.3 W 11 15 6 8 1015.7 1015.7 0.0
17/06:30am 24.7 27.2 19.1 71 3.6 NW 4 7 2 4 1015.5 1015.5 0.0
17/06:00am 22.8 24.6 18.2 75 2.9 NE 6 7 3 4 1015.3 1015.3 0.0
17/05:30am 23.3 24.8 18.0 72 3.3 NE 7 9 4 5 1015.0 1015.0 0.0
17/05:00am 23.5 24.7 18.2 72 3.3 NE 9 11 5 6 1014.9 1014.9 0.0

Latest Capital City Observations: Canberra | Sydney | Melbourne | Brisbane | Adelaide | Perth | Hobart | Darwin

Other Formats:

Comma delimited format used in spreadsheet applications
http://www.bom.gov.au/fwo/IDQ60901/IDQ60901.94578.axf

JavaScript Object Notation format (JSON) in row-major order
http://www.bom.gov.au/fwo/IDQ60901/IDQ60901.94578.json